Time;durP1;ratioP1;P1;durP2;ratioP2;P2;SDS_P1;SDS_P2;PMS_P1;PMS_P2;Temp;Humidity;BMP_temperature;BMP_pressure;BME280_temperature;BME280_humidity;BME280_pressure;Samples;Min_cycle;Max_cycle;Signal;HPM_P1;HPM_P2
2022/08/13 00:01:04;;;;;;;3.42;1.63;;;15.80;1.00;;;;;;5066031;28;36522;-74
2022/08/13 00:03:32;;;;;;;3.42;1.35;;;15.70;1.30;;;;;;5065650;28;34231;-74
2022/08/13 00:06:01;;;;;;;2.10;1.30;;;15.70;1.00;;;;;;5065492;28;34260;-74
2022/08/13 00:08:27;;;;;;;3.35;1.65;;;15.60;1.10;;;;;;5064711;28;34267;-74
2022/08/13 00:10:53;;;;;;;1.88;1.65;;;15.60;1.10;;;;;;5061804;28;35740;-74
2022/08/13 00:13:20;;;;;;;1.90;1.60;;;15.50;1.20;;;;;;5066689;28;34115;-74
2022/08/13 00:15:47;;;;;;;2.35;1.80;;;15.50;1.20;;;;;;5065462;28;34124;-76
2022/08/13 00:18:18;;;;;;;1.60;1.50;;;15.50;1.60;;;;;;5065774;28;34417;-74
2022/08/13 00:20:49;;;;;;;2.30;1.60;;;15.40;2.00;;;;;;5064481;28;36768;-74
2022/08/13 00:23:18;;;;;;;1.60;1.50;;;15.40;2.80;;;;;;5065854;28;34159;-74
2022/08/13 00:25:46;;;;;;;2.00;1.52;;;15.30;1.90;;;;;;5066287;28;34073;-74
2022/08/13 00:28:18;;;;;;;4.40;1.58;;;15.30;1.90;;;;;;5064589;28;34102;-75
2022/08/13 00:30:47;;;;;;;2.17;1.42;;;15.30;2.90;;;;;;5064015;28;35565;-75
2022/08/13 00:33:17;;;;;;;1.73;1.60;;;15.20;2.00;;;;;;5048529;28;34081;-76
2022/08/13 00:35:44;;;;;;;3.97;1.73;;;15.10;2.30;;;;;;5060397;28;34157;-75
2022/08/13 00:38:13;;;;;;;2.38;1.30;;;15.10;2.10;;;;;;5044083;28;34144;-75
2022/08/13 00:40:44;;;;;;;1.55;1.35;;;15.10;2.50;;;;;;5053692;28;35868;-75
2022/08/13 00:43:10;;;;;;;2.65;1.60;;;15.00;3.50;;;;;;5044294;28;34177;-75
2022/08/13 00:45:37;;;;;;;2.25;1.55;;;15.00;2.20;;;;;;5043796;28;34220;-75
2022/08/13 00:50:48;;;;;;;3.75;1.67;;;14.90;2.70;;;;;;5064572;28;34211;-75
2022/08/13 00:53:17;;;;;;;1.60;1.50;;;14.80;2.50;;;;;;5047865;28;34037;-75
2022/08/13 00:55:48;;;;;;;2.00;1.60;;;14.70;3.10;;;;;;5048048;28;34255;-75
2022/08/13 00:58:16;;;;;;;1.67;1.33;;;14.70;3.30;;;;;;5064602;28;34337;-75
2022/08/13 01:00:53;;;;;;;3.08;1.70;;;14.70;3.00;;;;;;5063434;28;35526;-75
2022/08/13 01:03:20;;;;;;;1.48;1.38;;;14.60;3.10;;;;;;5061041;28;34374;-75
2022/08/13 01:05:47;;;;;;;1.45;1.35;;;14.60;3.30;;;;;;5033936;28;34078;-75
2022/08/13 01:08:16;;;;;;;1.70;1.60;;;14.50;3.10;;;;;;5060762;28;34057;-75
2022/08/13 01:10:44;;;;;;;1.70;1.50;;;14.50;3.10;;;;;;5060479;28;35649;-75
2022/08/13 01:13:13;;;;;;;1.45;1.35;;;14.50;3.30;;;;;;5060662;28;34038;-75
2022/08/13 01:15:41;;;;;;;3.00;1.45;;;14.50;3.40;;;;;;5046650;28;34028;-75
2022/08/13 01:18:13;;;;;;;1.90;1.55;;;14.40;3.40;;;;;;5049200;28;34773;-74
2022/08/13 01:20:58;;;;;;;1.77;1.60;;;14.40;5.00;;;;;;5046581;28;36024;-75
2022/08/13 01:23:25;;;;;;;5.28;1.80;;;14.30;6.30;;;;;;5047361;28;34358;-75
2022/08/13 01:25:52;;;;;;;1.92;1.80;;;14.30;4.00;;;;;;5063463;28;34220;-75
2022/08/13 01:28:19;;;;;;;2.78;1.50;;;14.20;3.60;;;;;;5046931;28;34331;-74
2022/08/13 01:30:46;;;;;;;2.03;1.60;;;14.20;3.80;;;;;;5065003;28;35326;-75
2022/08/13 01:33:29;;;;;;;1.80;1.60;;;14.20;4.00;;;;;;5058265;28;34285;-75
2022/08/13 01:35:55;;;;;;;1.48;1.38;;;14.10;7.00;;;;;;5057835;28;34200;-75
2022/08/13 01:38:23;;;;;;;1.58;1.48;;;14.10;4.00;;;;;;5050960;28;34164;-75
2022/08/13 01:40:49;;;;;;;2.85;1.35;;;14.00;4.30;;;;;;5026176;28;34354;-75
2022/08/13 01:43:18;;;;;;;1.70;1.40;;;13.90;4.20;;;;;;5049057;28;34121;-75
2022/08/13 01:45:50;;;;;;;1.70;1.48;;;13.90;5.30;;;;;;5063549;28;34062;-74
2022/08/13 01:51:21;;;;;;;1.70;1.60;;;14.00;5.60;;;;;;5061869;28;34809;-76
2022/08/13 01:53:52;;;;;;;1.75;1.63;;;13.90;8.10;;;;;;5062748;28;34327;-75
2022/08/13 01:56:22;;;;;;;1.50;1.40;;;13.80;4.80;;;;;;5042673;28;34198;-75
2022/08/13 01:58:58;;;;;;;2.65;1.58;;;13.80;4.30;;;;;;5058859;28;34398;-75
2022/08/13 02:01:26;;;;;;;1.40;1.30;;;13.80;6.80;;;;;;5046155;28;36663;-75
2022/08/13 02:03:53;;;;;;;2.15;1.67;;;13.70;4.40;;;;;;5029543;28;34063;-75
2022/08/13 02:06:23;;;;;;;2.10;1.55;;;13.70;4.90;;;;;;5062706;28;34065;-75
2022/08/13 02:08:52;;;;;;;2.63;1.70;;;13.70;5.10;;;;;;5063830;28;34425;-75
2022/08/13 02:11:18;;;;;;;1.85;1.70;;;13.70;5.00;;;;;;5062478;28;35916;-74
2022/08/13 02:13:45;;;;;;;4.05;1.65;;;13.70;4.90;;;;;;5045628;28;34477;-75
2022/08/13 02:16:11;;;;;;;1.70;1.60;;;13.60;4.90;;;;;;5046708;28;34366;-75
2022/08/13 02:18:38;;;;;;;1.73;1.63;;;13.60;4.90;;;;;;5062524;28;34136;-75
2022/08/13 02:21:05;;;;;;;1.90;1.70;;;13.60;5.00;;;;;;5064103;28;34461;-75
2022/08/13 02:23:33;;;;;;;2.42;1.48;;;13.50;5.00;;;;;;5064433;28;34033;-75
2022/08/13 02:26:01;;;;;;;1.88;1.70;;;13.50;5.70;;;;;;5046511;28;34089;-74
2022/08/13 02:28:30;;;;;;;3.90;1.60;;;13.50;5.30;;;;;;5063230;28;34374;-75
2022/08/13 02:30:57;;;;;;;2.28;1.65;;;13.50;5.60;;;;;;5062673;28;35831;-75
2022/08/13 02:33:24;;;;;;;2.85;1.65;;;13.40;5.50;;;;;;5062500;28;34093;-75
2022/08/13 02:35:51;;;;;;;1.40;1.30;;;13.40;5.70;;;;;;5063688;28;34096;-75
2022/08/13 02:38:18;;;;;;;1.70;1.52;;;13.40;5.40;;;;;;5062418;28;34362;-75
2022/08/13 02:43:28;;;;;;;1.60;1.48;;;13.30;6.00;;;;;;5042880;28;34335;-75
2022/08/13 02:45:55;;;;;;;1.52;1.42;;;13.20;5.60;;;;;;5059158;28;34463;-75
2022/08/13 02:48:24;;;;;;;1.95;1.77;;;13.20;5.70;;;;;;5042772;28;34133;-74
2022/08/13 02:50:55;;;;;;;3.97;1.52;;;13.20;6.00;;;;;;5045212;28;36148;-75
2022/08/13 02:53:23;;;;;;;1.90;1.70;;;13.20;6.70;;;;;;5062398;28;34150;-75
2022/08/13 02:55:49;;;;;;;2.35;1.55;;;13.10;6.10;;;;;;5045448;28;34422;-74
2022/08/13 02:58:16;;;;;;;4.05;1.70;;;13.10;6.00;;;;;;5046005;28;34518;-74
2022/08/13 03:00:48;;;;;;;1.70;1.60;;;13.10;6.20;;;;;;5061955;28;35622;-74
2022/08/13 03:03:15;;;;;;;1.67;1.58;;;13.00;6.10;;;;;;5046642;28;34116;-74
2022/08/13 03:05:42;;;;;;;2.10;1.90;;;13.00;6.10;;;;;;5046415;28;34238;-74
2022/08/13 03:08:08;;;;;;;1.55;1.45;;;13.00;6.20;;;;;;5030924;28;34470;-74
2022/08/13 03:10:34;;;;;;;1.50;1.40;;;13.00;6.30;;;;;;5063643;28;36008;-74
2022/08/13 03:13:15;;;;;;;2.08;1.80;;;13.00;6.30;;;;;;5058376;28;34114;-74
2022/08/13 03:15:44;;;;;;;2.03;1.67;;;12.90;7.80;;;;;;5035569;28;34143;-74
2022/08/13 03:18:11;;;;;;;2.28;1.70;;;12.90;6.50;;;;;;5062581;28;34227;-74
2022/08/13 03:20:40;;;;;;;2.22;1.58;;;12.90;6.60;;;;;;5061846;28;34252;-74
2022/08/13 03:23:07;;;;;;;1.75;1.65;;;12.80;7.70;;;;;;5045550;28;34139;-74
2022/08/13 03:25:34;;;;;;;3.00;1.80;;;12.80;6.80;;;;;;5057711;28;34272;-74
2022/08/13 03:28:01;;;;;;;2.20;1.63;;;12.80;6.80;;;;;;5049065;28;34198;-74
2022/08/13 03:30:28;;;;;;;1.60;1.50;;;12.70;6.80;;;;;;5065684;28;34201;-74
2022/08/13 03:32:54;;;;;;;1.88;1.70;;;12.70;6.90;;;;;;5065388;28;34116;-74
2022/08/13 03:35:22;;;;;;;3.22;1.85;;;12.70;7.10;;;;;;5058066;28;34136;-74
2022/08/13 03:37:53;;;;;;;1.65;1.55;;;12.70;7.20;;;;;;5044982;28;34386;-74
2022/08/13 03:40:23;;;;;;;1.67;1.50;;;12.70;7.50;;;;;;5055115;28;34881;-74
2022/08/13 03:42:50;;;;;;;2.05;1.73;;;12.60;7.20;;;;;;5065734;28;34252;-75
2022/08/13 03:45:17;;;;;;;1.95;1.65;;;12.60;7.20;;;;;;5066204;28;34007;-74
2022/08/13 03:47:44;;;;;;;2.80;1.60;;;12.60;7.30;;;;;;5055451;28;34107;-74
2022/08/13 03:50:13;;;;;;;1.67;1.45;;;12.50;7.20;;;;;;5042946;28;36013;-75
2022/08/13 03:52:40;;;;;;;1.88;1.77;;;12.50;7.70;;;;;;5048549;28;34274;-74
2022/08/13 03:55:10;;;;;;;1.50;1.38;;;12.50;7.40;;;;;;5064773;28;34206;-74
2022/08/13 03:57:40;;;;;;;3.45;1.67;;;12.40;7.80;;;;;;5064801;28;34300;-74
2022/08/13 04:00:11;;;;;;;1.65;1.50;;;12.40;7.60;;;;;;5028199;28;36696;-74
2022/08/13 04:02:40;;;;;;;1.75;1.65;;;12.40;7.70;;;;;;5028026;28;34232;-74
2022/08/13 04:05:13;;;;;;;2.70;1.65;;;12.40;7.70;;;;;;5030851;28;34092;-74
2022/08/13 04:07:39;;;;;;;1.92;1.48;;;12.30;7.80;;;;;;5049308;28;34347;-74
2022/08/13 04:10:07;;;;;;;3.83;1.88;;;12.30;7.70;;;;;;5047969;28;35635;-74
2022/08/13 04:12:34;;;;;;;1.67;1.58;;;12.30;7.90;;;;;;5063744;28;34180;-74
2022/08/13 04:15:01;;;;;;;1.67;1.58;;;12.30;7.80;;;;;;5064439;28;34286;-74
2022/08/13 04:17:27;;;;;;;2.83;1.40;;;12.20;7.90;;;;;;5064274;28;34199;-74
2022/08/13 04:19:53;;;;;;;2.30;1.60;;;12.20;8.00;;;;;;5064758;28;34453;-74
2022/08/13 04:22:20;;;;;;;1.80;1.67;;;12.20;8.00;;;;;;5047288;28;34138;-74
2022/08/13 04:24:46;;;;;;;1.90;1.70;;;12.20;8.10;;;;;;5043922;28;34088;-74
2022/08/13 04:27:12;;;;;;;1.88;1.75;;;12.20;8.30;;;;;;5045137;28;34102;-74
2022/08/13 04:29:39;;;;;;;1.58;1.48;;;12.10;8.40;;;;;;5053912;28;35468;-74
2022/08/13 04:32:05;;;;;;;1.50;1.42;;;12.10;8.40;;;;;;5065473;28;34045;-74
2022/08/13 04:34:31;;;;;;;1.85;1.67;;;12.10;8.40;;;;;;5030774;28;34241;-74
2022/08/13 04:36:57;;;;;;;1.65;1.55;;;12.10;8.30;;;;;;5064503;28;34350;-74
2022/08/13 04:39:24;;;;;;;2.97;1.70;;;12.10;8.50;;;;;;5062968;28;35626;-74
2022/08/13 04:41:51;;;;;;;2.40;1.80;;;12.10;8.60;;;;;;5063255;28;34260;-74
2022/08/13 04:44:17;;;;;;;2.10;1.90;;;12.00;8.50;;;;;;5047263;28;34338;-74
2022/08/13 04:46:42;;;;;;;1.83;1.50;;;12.00;8.60;;;;;;5063493;28;34076;-74
2022/08/13 04:49:11;;;;;;;2.05;1.85;;;12.00;8.60;;;;;;5055788;28;35649;-73
2022/08/13 04:51:38;;;;;;;5.07;1.90;;;12.00;8.70;;;;;;5052350;28;34199;-74
2022/08/13 04:54:05;;;;;;;5.72;1.80;;;12.00;8.70;;;;;;5065180;28;34166;-74
2022/08/13 04:56:31;;;;;;;2.13;1.85;;;12.00;8.80;;;;;;5063815;28;34405;-74
2022/08/13 04:58:57;;;;;;;1.85;1.73;;;12.10;9.00;;;;;;5061271;28;34195;-74
2022/08/13 05:01:24;;;;;;;3.83;1.98;;;12.10;9.10;;;;;;5046219;28;34098;-74
2022/08/13 05:03:51;;;;;;;1.77;1.67;;;12.00;9.10;;;;;;5048953;28;34244;-74
2022/08/13 05:06:19;;;;;;;5.13;1.98;;;12.00;9.00;;;;;;5063633;28;34207;-74
2022/08/13 05:08:47;;;;;;;5.93;2.10;;;12.10;9.10;;;;;;5062881;28;35836;-74
2022/08/13 05:11:14;;;;;;;6.82;2.10;;;12.10;9.60;;;;;;5050535;28;34756;-73
2022/08/13 05:13:42;;;;;;;1.90;1.77;;;12.10;9.30;;;;;;5062824;28;34175;-74
2022/08/13 05:16:11;;;;;;;6.53;1.98;;;12.10;9.20;;;;;;5064322;28;34142;-74
2022/08/13 05:18:38;;;;;;;4.22;2.10;;;12.10;9.40;;;;;;5060615;28;34306;-74
2022/08/13 05:21:08;;;;;;;3.45;2.08;;;12.10;9.50;;;;;;5050641;28;34175;-74
2022/08/13 05:23:36;;;;;;;2.92;1.90;;;12.20;10.10;;;;;;5063474;28;34212;-74
2022/08/13 05:26:02;;;;;;;1.98;1.75;;;12.10;9.40;;;;;;5064325;28;34261;-74
2022/08/13 05:28:28;;;;;;;2.08;1.83;;;12.20;9.40;;;;;;5064225;28;34304;-74
2022/08/13 05:30:54;;;;;;;4.47;1.90;;;12.30;9.60;;;;;;5064074;28;34038;-74
2022/08/13 05:33:22;;;;;;;2.25;1.92;;;12.30;9.60;;;;;;5048439;28;34364;-74
2022/08/13 05:35:52;;;;;;;2.45;1.90;;;12.30;9.70;;;;;;5045866;28;34076;-74
2022/08/13 05:38:22;;;;;;;3.17;2.03;;;12.40;10.00;;;;;;5043035;28;36518;-74
2022/08/13 05:40:49;;;;;;;2.17;1.98;;;12.40;9.90;;;;;;5046363;28;34108;-74
2022/08/13 05:43:19;;;;;;;4.57;2.10;;;12.40;9.70;;;;;;5057587;28;34340;-74
2022/08/13 05:45:54;;;;;;;2.53;2.28;;;12.50;10.30;;;;;;5062976;28;34513;-74
2022/08/13 05:48:20;;;;;;;3.78;1.83;;;12.50;11.30;;;;;;5046645;28;35601;-74
2022/08/13 05:50:46;;;;;;;2.28;2.08;;;12.60;9.90;;;;;;5063387;28;34101;-74
2022/08/13 05:53:12;;;;;;;2.40;2.17;;;12.70;9.90;;;;;;5063229;28;34391;-75
2022/08/13 05:55:40;;;;;;;2.42;2.22;;;12.80;9.80;;;;;;5062163;28;34133;-75
2022/08/13 05:58:08;;;;;;;3.15;2.30;;;12.90;10.00;;;;;;5045650;28;35515;-74
2022/08/13 06:03:26;;;;;;;2.63;2.22;;;13.10;10.00;;;;;;5041988;28;34305;-74
2022/08/13 06:05:55;;;;;;;5.57;2.42;;;13.20;9.90;;;;;;5061283;28;34181;-75
2022/08/13 06:08:30;;;;;;;4.82;2.67;;;13.50;9.80;;;;;;5063622;28;34550;-75
2022/08/13 06:10:59;;;;;;;2.65;2.45;;;13.90;9.80;;;;;;5050495;28;34296;-75
2022/08/13 06:13:42;;;;;;;2.85;2.55;;;14.60;9.20;;;;;;5068555;28;34272;-75
2022/08/13 06:16:10;;;;;;;2.55;2.35;;;15.70;9.70;;;;;;5059781;28;34507;-75
2022/08/13 06:18:43;;;;;;;3.28;2.53;;;16.90;5.90;;;;;;5057402;28;36459;-76
2022/08/13 06:21:16;;;;;;;3.35;2.22;;;18.20;4.40;;;;;;5018060;28;34161;-76
2022/08/13 06:23:45;;;;;;;2.75;2.05;;;19.50;3.20;;;;;;5020029;28;34236;-76
2022/08/13 06:26:20;;;;;;;5.50;2.38;;;20.50;1.60;;;;;;5017497;28;34430;-75
2022/08/13 06:28:47;;;;;;;3.80;2.00;;;21.60;1.00;;;;;;4991620;28;34387;-75
2022/08/13 06:31:16;;;;;;;2.88;2.00;;;22.50;1.00;;;;;;5022717;28;34617;-76
2022/08/13 06:33:44;;;;;;;3.05;1.98;;;23.20;1.00;;;;;;5023551;28;34367;-77
2022/08/13 06:36:17;;;;;;;1.98;1.85;;;23.90;1.00;;;;;;5024212;28;34350;-76
2022/08/13 06:38:52;;;;;;;2.72;1.65;;;24.70;1.00;;;;;;5026492;28;36210;-76
2022/08/13 06:41:21;;;;;;;2.22;1.70;;;25.20;1.00;;;;;;5008745;28;34304;-76
2022/08/13 06:44:07;;;;;;;6.60;1.70;;;25.90;1.00;;;;;;5025222;28;34224;-76
2022/08/13 06:46:40;;;;;;;1.70;1.60;;;26.50;1.00;;;;;;5022117;28;34896;-76
2022/08/13 06:49:09;;;;;;;1.60;1.50;;;27.20;1.00;;;;;;5019680;28;34198;-75
2022/08/13 06:51:37;;;;;;;2.05;1.58;;;27.70;1.00;;;;;;5010688;28;34133;-77
2022/08/13 06:54:08;;;;;;;2.40;1.52;;;28.10;1.00;;;;;;5047640;28;34338;-76
2022/08/13 06:56:35;;;;;;;1.92;1.40;;;28.60;1.00;;;;;;5026378;28;34105;-74
2022/08/13 06:59:04;;;;;;;4.80;1.63;;;28.90;1.00;;;;;;5036074;28;35570;-75
2022/08/13 07:01:30;;;;;;;1.50;1.40;;;29.20;1.00;;;;;;5029112;28;34238;-75
2022/08/13 07:03:56;;;;;;;3.92;1.75;;;29.60;1.00;;;;;;5010081;28;34153;-75
2022/08/13 07:06:25;;;;;;;1.38;1.27;;;29.80;1.00;;;;;;5022110;28;34194;-74
2022/08/13 07:08:54;;;;;;;1.60;1.50;;;30.10;1.00;;;;;;4991329;28;35897;-75
2022/08/13 07:11:26;;;;;;;1.40;1.30;;;30.20;1.00;;;;;;5025286;28;34349;-74
2022/08/13 07:13:56;;;;;;;1.50;1.40;;;30.40;1.00;;;;;;5012163;28;34308;-75
2022/08/13 07:16:24;;;;;;;1.98;1.77;;;30.50;1.00;;;;;;5017283;28;34506;-75
2022/08/13 07:18:51;;;;;;;2.72;1.55;;;30.70;1.00;;;;;;5026972;28;34356;-75
2022/08/13 07:21:22;;;;;;;1.73;1.50;;;30.60;1.00;;;;;;5023757;28;34253;-74
2022/08/13 07:23:51;;;;;;;2.30;1.58;;;30.30;1.00;;;;;;5040134;28;34178;-75
2022/08/13 07:26:18;;;;;;;1.50;1.40;;;30.20;1.00;;;;;;5007773;28;34452;-75
2022/08/13 07:28:49;;;;;;;4.07;1.30;;;30.00;1.00;;;;;;5025426;28;35995;-75
2022/08/13 07:31:22;;;;;;;1.63;1.48;;;29.80;1.00;;;;;;5006870;28;34502;-75
2022/08/13 07:33:53;;;;;;;1.20;1.10;;;29.80;1.00;;;;;;5014415;28;34338;-75
2022/08/13 07:36:27;;;;;;;1.60;1.40;;;29.80;1.00;;;;;;5021781;28;34491;-75
2022/08/13 07:38:54;;;;;;;3.15;1.30;;;29.80;1.00;;;;;;5041801;28;35312;-75
2022/08/13 07:41:21;;;;;;;1.50;1.30;;;29.70;1.00;;;;;;5022149;28;34294;-75
2022/08/13 07:43:47;;;;;;;1.52;1.20;;;29.80;1.00;;;;;;5043034;28;34276;-75
2022/08/13 07:46:18;;;;;;;1.85;1.20;;;29.90;1.00;;;;;;5042609;28;34270;-75
2022/08/13 07:48:52;;;;;;;3.20;1.30;;;30.10;1.00;;;;;;5019052;28;35798;-75
2022/08/13 07:51:21;;;;;;;1.77;1.02;;;30.20;1.00;;;;;;5033225;28;34379;-74
2022/08/13 07:53:52;;;;;;;3.13;1.27;;;30.40;1.00;;;;;;5013179;28;34400;-75
2022/08/13 07:56:28;;;;;;;1.65;1.30;;;30.60;1.00;;;;;;5057952;28;34915;-75
2022/08/13 07:59:00;;;;;;;1.27;1.17;;;30.70;1.00;;;;;;5060368;28;34977;-75
2022/08/13 08:01:28;;;;;;;1.27;1.17;;;30.70;1.00;;;;;;5045843;28;34279;-75
2022/08/13 08:03:58;;;;;;;1.40;1.30;;;30.70;1.00;;;;;;5031062;28;34508;-74
2022/08/13 08:06:45;;;;;;;1.55;1.13;;;31.00;1.00;;;;;;5054530;28;34176;-75
2022/08/13 08:09:16;;;;;;;4.03;1.00;;;31.10;1.00;;;;;;5058951;28;35337;-76
2022/08/13 08:14:27;;;;;;;3.75;1.15;;;30.80;1.00;;;;;;5047626;28;34385;-74
2022/08/13 08:16:54;;;;;;;1.10;1.02;;;30.90;1.00;;;;;;5058248;28;34270;-76
2022/08/13 08:19:21;;;;;;;1.00;1.00;;;30.90;1.00;;;;;;5047363;28;35028;-75
2022/08/13 08:21:47;;;;;;;2.85;1.17;;;31.10;1.00;;;;;;5040423;28;34216;-76
2022/08/13 08:24:15;;;;;;;1.23;1.02;;;31.20;1.00;;;;;;5038301;28;34328;-75
2022/08/13 08:26:47;;;;;;;1.27;0.85;;;31.30;1.00;;;;;;5042414;28;34176;-74
2022/08/13 08:29:14;;;;;;;1.08;0.98;;;31.40;1.00;;;;;;5038565;28;35588;-75
2022/08/13 08:31:41;;;;;;;0.98;0.93;;;31.60;1.00;;;;;;5038270;28;34386;-75
2022/08/13 08:34:08;;;;;;;0.82;0.82;;;31.60;1.00;;;;;;5057193;28;34526;-75
2022/08/13 08:36:40;;;;;;;0.77;0.73;;;31.70;1.00;;;;;;5036197;28;34361;-74
2022/08/13 08:44:36;;;;;;;1.60;0.90;;;31.60;1.00;;;;;;5051583;28;34147;-73
2022/08/13 08:47:04;;;;;;;1.05;0.95;;;31.60;1.00;;;;;;5028775;28;34133;-76
2022/08/13 08:49:31;;;;;;;1.38;0.93;;;31.70;1.00;;;;;;5066631;28;34299;-76
2022/08/13 08:51:58;;;;;;;3.33;0.90;;;31.80;1.00;;;;;;5038948;28;34964;-75
2022/08/13 08:54:26;;;;;;;1.20;1.10;;;31.80;1.00;;;;;;5021115;28;34224;-74
2022/08/13 08:56:54;;;;;;;2.50;0.80;;;31.90;1.00;;;;;;5064042;28;34116;-76
2022/08/13 08:59:32;;;;;;;0.80;0.80;;;32.00;1.00;;;;;;5023560;28;35651;-74
2022/08/13 09:01:59;;;;;;;0.70;0.60;;;32.30;1.00;;;;;;5029103;28;34415;-74
2022/08/13 09:04:28;;;;;;;0.80;0.80;;;32.10;1.00;;;;;;5042145;28;34268;-77
2022/08/13 09:06:58;;;;;;;1.55;0.80;;;32.20;1.00;;;;;;5039854;28;34585;-75
2022/08/13 09:09:26;;;;;;;0.85;0.85;;;32.00;1.00;;;;;;5045942;28;35580;-78
2022/08/13 09:11:56;;;;;;;5.22;0.85;;;31.90;1.00;;;;;;5038887;28;34039;-75
2022/08/13 09:14:26;;;;;;;1.15;0.80;;;32.00;1.00;;;;;;5043486;28;34422;-75
2022/08/13 09:16:55;;;;;;;1.25;0.80;;;32.00;1.00;;;;;;5030132;28;34462;-76
2022/08/13 09:19:23;;;;;;;0.70;0.70;;;32.20;1.00;;;;;;5044042;28;36002;-74
2022/08/13 09:21:49;;;;;;;0.93;0.80;;;32.40;1.00;;;;;;5038170;28;34396;-77
2022/08/13 09:24:16;;;;;;;0.80;0.80;;;32.40;1.00;;;;;;5023963;28;34344;-75
2022/08/13 09:26:47;;;;;;;1.75;0.70;;;32.20;1.00;;;;;;5039675;28;34716;-77
2022/08/13 09:29:18;;;;;;;1.08;0.70;;;32.20;1.00;;;;;;5039625;28;35074;-75
2022/08/13 09:31:48;;;;;;;1.42;0.70;;;32.20;1.00;;;;;;5027933;28;34287;-75
2022/08/13 09:34:15;;;;;;;1.23;0.90;;;32.30;1.00;;;;;;5030752;28;34781;-73
2022/08/13 09:36:46;;;;;;;0.70;0.70;;;32.50;1.00;;;;;;5025556;28;34193;-75
2022/08/13 09:39:30;;;;;;;1.73;0.80;;;32.60;1.00;;;;;;5025998;28;35882;-77
2022/08/13 09:41:56;;;;;;;0.90;0.73;;;32.80;1.00;;;;;;5056889;28;34187;-74
2022/08/13 09:44:25;;;;;;;0.73;0.70;;;32.80;1.00;;;;;;5043848;28;34204;-76
2022/08/13 09:46:52;;;;;;;0.70;0.70;;;32.90;1.00;;;;;;5029474;28;34164;-75
2022/08/13 09:49:20;;;;;;;0.70;0.70;;;33.00;1.00;;;;;;5059713;28;35228;-76
2022/08/13 09:51:46;;;;;;;0.80;0.68;;;33.20;1.00;;;;;;5041785;28;34424;-77
2022/08/13 09:54:16;;;;;;;0.90;0.80;;;33.40;1.00;;;;;;5023358;28;34256;-75
2022/08/13 09:56:47;;;;;;;0.60;0.60;;;33.40;1.00;;;;;;5026710;28;34521;-74
2022/08/13 09:59:13;;;;;;;0.68;0.68;;;33.50;1.00;;;;;;5041743;28;35740;-77
2022/08/13 10:02:05;;;;;;;1.98;0.70;;;33.80;1.00;;;;;;5041148;28;34310;-76
2022/08/13 10:04:35;;;;;;;0.80;0.77;;;33.90;1.00;;;;;;5087072;27;34339;-77
2022/08/13 10:07:03;;;;;;;0.70;0.70;;;34.00;1.00;;;;;;5101929;27;34233;-74
2022/08/13 10:09:29;;;;;;;2.15;0.70;;;33.90;1.00;;;;;;5084806;28;35807;-76
2022/08/13 10:11:58;;;;;;;2.88;0.77;;;33.90;1.00;;;;;;5086257;28;34270;-77
2022/08/13 10:14:24;;;;;;;0.82;0.65;;;33.80;1.00;;;;;;5084098;28;34247;-76
2022/08/13 10:16:50;;;;;;;0.88;0.60;;;33.80;1.00;;;;;;5104134;27;34268;-76
2022/08/13 10:19:16;;;;;;;0.70;0.70;;;33.80;1.00;;;;;;5102620;27;34114;-75
2022/08/13 10:21:42;;;;;;;0.57;0.57;;;33.80;1.00;;;;;;5079641;28;34179;-75
2022/08/13 10:24:08;;;;;;;0.73;0.73;;;33.80;1.00;;;;;;5114902;27;34195;-75
2022/08/13 10:26:40;;;;;;;0.57;0.57;;;34.10;1.00;;;;;;5085499;28;34590;-75
2022/08/13 10:29:27;;;;;;;1.20;0.70;;;34.20;1.00;;;;;;5087468;28;36716;-75
2022/08/13 10:31:57;;;;;;;0.60;0.60;;;34.10;1.00;;;;;;5084957;28;34200;-77
2022/08/13 10:34:29;;;;;;;2.88;0.80;;;34.20;1.00;;;;;;5079628;28;34273;-76
2022/08/13 10:36:59;;;;;;;0.50;0.43;;;34.40;1.00;;;;;;5067271;28;34810;-76
2022/08/13 10:39:26;;;;;;;0.77;0.77;;;34.40;1.00;;;;;;5077291;28;36394;-76
2022/08/13 10:41:52;;;;;;;1.02;0.90;;;34.50;1.00;;;;;;5079776;28;33797;-76
2022/08/13 10:44:19;;;;;;;1.02;0.88;;;34.40;1.00;;;;;;5085848;27;34061;-75
2022/08/13 10:46:46;;;;;;;0.60;0.60;;;34.40;1.00;;;;;;5085908;28;34303;-76
2022/08/13 10:49:29;;;;;;;0.82;0.82;;;34.30;1.00;;;;;;5080465;28;35565;-77
2022/08/13 10:51:57;;;;;;;1.00;0.65;;;34.20;1.00;;;;;;5099246;27;34377;-76
2022/08/13 10:54:25;;;;;;;0.80;0.70;;;34.30;1.00;;;;;;5086152;28;34380;-76
2022/08/13 10:56:55;;;;;;;1.40;0.63;;;34.40;1.00;;;;;;5070871;28;34305;-76
2022/08/13 10:59:22;;;;;;;0.63;0.63;;;34.20;1.00;;;;;;5071849;28;35604;-78
2022/08/13 11:01:48;;;;;;;0.82;0.80;;;34.00;1.00;;;;;;5070150;28;34601;-77
2022/08/13 11:04:14;;;;;;;3.25;0.73;;;34.10;1.00;;;;;;5083039;28;34440;-75
2022/08/13 11:06:40;;;;;;;4.88;0.90;;;34.20;1.00;;;;;;5092468;28;34479;-76
2022/08/13 11:09:07;;;;;;;3.55;0.80;;;34.30;1.00;;;;;;5084390;28;35477;-76
2022/08/13 11:11:34;;;;;;;1.27;0.80;;;34.30;1.00;;;;;;5078808;28;34159;-76
2022/08/13 11:14:00;;;;;;;0.82;0.63;;;34.40;1.00;;;;;;5083491;28;34282;-76
2022/08/13 11:16:56;;;;;;;1.02;0.70;;;34.50;1.00;;;;;;5086799;28;34483;-76
2022/08/13 11:19:14;;;;;;;4.10;0.82;;;34.40;1.00;;;;;;5084698;28;34549;-76
2022/08/13 11:21:44;;;;;;;0.70;0.70;;;34.50;1.00;;;;;;5089916;28;34171;-76
2022/08/13 11:24:11;;;;;;;1.70;0.68;;;34.70;1.00;;;;;;5088342;28;34204;-77
2022/08/13 11:26:37;;;;;;;3.95;0.70;;;34.90;1.00;;;;;;5087408;28;34622;-76
2022/08/13 11:29:04;;;;;;;3.03;0.70;;;34.90;1.00;;;;;;5080711;28;35675;-76
2022/08/13 11:31:30;;;;;;;4.63;1.33;;;35.00;1.00;;;;;;5078254;28;34387;-77
2022/08/13 11:33:56;;;;;;;6.15;0.80;;;35.00;1.00;;;;;;5083146;28;34209;-77
2022/08/13 11:36:23;;;;;;;3.95;1.20;;;34.90;1.00;;;;;;5082828;28;34194;-76
2022/08/13 11:38:49;;;;;;;8.05;1.20;;;35.10;1.00;;;;;;5083584;28;36030;-75
2022/08/13 11:41:15;;;;;;;32.47;2.17;;;34.90;1.00;;;;;;5085422;28;34114;-76
2022/08/13 11:43:41;;;;;;;1.17;0.70;;;34.90;1.00;;;;;;5087254;28;34377;-76
2022/08/13 11:46:07;;;;;;;1.70;0.75;;;35.00;1.00;;;;;;5088935;28;34166;-77
2022/08/13 11:48:33;;;;;;;8.93;4.47;;;35.00;1.00;;;;;;5083865;28;35716;-77
2022/08/13 11:50:59;;;;;;;5.03;1.08;;;35.10;1.00;;;;;;5079822;28;34292;-75
2022/08/13 11:53:30;;;;;;;2.05;0.70;;;35.20;1.00;;;;;;5068708;28;34339;-77
2022/08/13 11:55:59;;;;;;;4.70;0.95;;;35.30;1.00;;;;;;5084916;28;34278;-75
2022/08/13 11:58:25;;;;;;;5.10;0.80;;;35.20;1.00;;;;;;5090198;28;35874;-74
2022/08/13 12:00:54;;;;;;;1.13;0.70;;;35.30;1.00;;;;;;5086283;28;34315;-75
2022/08/13 12:03:21;;;;;;;2.30;1.40;;;35.30;1.00;;;;;;5082934;28;34171;-74
2022/08/13 12:05:47;;;;;;;2.55;0.70;;;35.50;1.00;;;;;;5089335;28;34445;-76
2022/08/13 12:08:16;;;;;;;3.60;0.70;;;35.70;1.00;;;;;;5094623;27;36469;-76
2022/08/13 12:10:44;;;;;;;2.30;0.68;;;35.80;1.00;;;;;;5083804;28;34255;-78
2022/08/13 12:13:10;;;;;;;1.75;0.77;;;35.60;1.00;;;;;;5090516;28;34187;-75
2022/08/13 12:15:55;;;;;;;3.92;0.70;;;35.50;1.00;;;;;;5093198;27;34697;-76
2022/08/13 12:18:21;;;;;;;0.70;0.70;;;35.60;1.00;;;;;;5096816;28;36055;-75
2022/08/13 12:20:47;;;;;;;2.53;0.70;;;35.50;1.00;;;;;;5086179;28;34391;-77
2022/08/13 12:23:14;;;;;;;1.65;0.68;;;35.50;1.00;;;;;;5072663;28;34236;-75
2022/08/13 12:25:40;;;;;;;0.52;0.52;;;35.40;1.00;;;;;;5107513;27;34362;-75
2022/08/13 12:28:23;;;;;;;0.63;0.60;;;35.50;1.00;;;;;;5089649;28;36043;-76
2022/08/13 12:30:52;;;;;;;1.58;0.68;;;35.50;1.00;;;;;;5083178;27;34174;-78
2022/08/13 12:33:19;;;;;;;1.10;0.70;;;35.60;1.00;;;;;;5069856;27;35955;-75
2022/08/13 12:35:46;;;;;;;0.57;0.57;;;35.50;1.00;;;;;;5106106;28;34248;-75
2022/08/13 12:38:14;;;;;;;9.85;0.93;;;35.40;1.00;;;;;;5082722;27;36496;-75
2022/08/13 12:40:42;;;;;;;0.65;0.65;;;35.40;1.00;;;;;;5106489;27;34345;-75
2022/08/13 12:43:08;;;;;;;1.27;0.50;;;35.50;1.00;;;;;;5088148;28;34057;-74
2022/08/13 12:45:35;;;;;;;0.63;0.63;;;35.40;1.00;;;;;;5107092;28;34009;-74
2022/08/13 12:48:04;;;;;;;0.60;0.60;;;35.50;1.00;;;;;;5088624;28;34161;-75
2022/08/13 12:50:30;;;;;;;1.02;0.65;;;35.50;1.00;;;;;;5081313;28;34376;-75
2022/08/13 12:52:56;;;;;;;0.80;0.60;;;35.50;1.00;;;;;;5103633;27;34327;-77
2022/08/13 12:55:22;;;;;;;0.73;0.70;;;35.50;1.00;;;;;;5088406;28;34593;-76
2022/08/13 12:57:48;;;;;;;0.80;0.60;;;35.50;1.00;;;;;;5097779;28;34791;-77
2022/08/13 13:00:15;;;;;;;1.58;0.70;;;35.40;1.00;;;;;;5087091;28;34323;-76
2022/08/13 13:02:41;;;;;;;3.05;0.73;;;35.50;1.00;;;;;;5087516;28;34190;-75
2022/08/13 13:05:08;;;;;;;0.70;0.70;;;35.40;1.00;;;;;;5102762;27;34421;-77
2022/08/13 13:07:34;;;;;;;1.48;0.68;;;35.40;1.00;;;;;;5087629;28;36018;-75
2022/08/13 13:10:00;;;;;;;2.28;0.60;;;35.50;1.00;;;;;;5085723;28;34102;-77
2022/08/13 13:12:43;;;;;;;1.83;0.57;;;35.70;1.00;;;;;;5073394;28;34502;-75
2022/08/13 13:15:09;;;;;;;0.90;0.50;;;35.70;1.00;;;;;;5086414;28;33918;-75
2022/08/13 13:17:47;;;;;;;2.95;0.52;;;35.70;1.00;;;;;;5049280;28;34211;-76
2022/08/13 13:20:14;;;;;;;0.65;0.50;;;35.70;1.00;;;;;;5113094;27;34226;-76
2022/08/13 13:22:40;;;;;;;0.65;0.65;;;35.60;1.00;;;;;;5083476;28;34481;-74
2022/08/13 13:25:08;;;;;;;0.50;0.50;;;35.60;1.00;;;;;;5088853;28;34210;-75